sensor_id;sensor_type;location;lat;lon;timestamp;pressure;altitude;pressure_sealevel;temperature;humidity
19748;BME280;10032;51.386;12.516;2023-04-29T00:00:50;99592.81;;;12.62;100.00
19748;BME280;10032;51.386;12.516;2023-04-29T00:03:16;99596.09;;;12.64;100.00
19748;BME280;10032;51.386;12.516;2023-04-29T00:05:44;99593.91;;;12.66;100.00
19748;BME280;10032;51.386;12.516;2023-04-29T00:08:09;99593.38;;;12.69;100.00
19748;BME280;10032;51.386;12.516;2023-04-29T00:10:35;99596.03;;;12.74;100.00
19748;BME280;10032;51.386;12.516;2023-04-29T00:13:00;99592.25;;;12.75;100.00
19748;BME280;10032;51.386;12.516;2023-04-29T00:15:26;99590.88;;;12.78;100.00
19748;BME280;10032;51.386;12.516;2023-04-29T00:17:51;99590.56;;;12.84;100.00
19748;BME280;10032;51.386;12.516;2023-04-29T00:20:17;99593.84;;;12.86;100.00
19748;BME280;10032;51.386;12.516;2023-04-29T00:22:42;99594.63;;;12.92;100.00
19748;BME280;10032;51.386;12.516;2023-04-29T00:25:08;99584.56;;;12.97;100.00
19748;BME280;10032;51.386;12.516;2023-04-29T00:27:34;99592.16;;;13.00;100.00
19748;BME280;10032;51.386;12.516;2023-04-29T00:29:59;99572.31;;;13.05;100.00
19748;BME280;10032;51.386;12.516;2023-04-29T00:32:25;99585.09;;;13.04;100.00
19748;BME280;10032;51.386;12.516;2023-04-29T00:34:50;99585.09;;;13.04;100.00
19748;BME280;10032;51.386;12.516;2023-04-29T00:37:15;99576.66;;;13.06;100.00
19748;BME280;10032;51.386;12.516;2023-04-29T00:39:41;99576.38;;;13.07;100.00
19748;BME280;10032;51.386;12.516;2023-04-29T00:42:07;99581.50;;;13.09;100.00
19748;BME280;10032;51.386;12.516;2023-04-29T00:44:32;99582.88;;;13.11;100.00
19748;BME280;10032;51.386;12.516;2023-04-29T00:46:57;99581.78;;;13.12;100.00
19748;BME280;10032;51.386;12.516;2023-04-29T00:49:23;99582.88;;;13.11;100.00
19748;BME280;10032;51.386;12.516;2023-04-29T00:51:49;99589.66;;;13.14;100.00
19748;BME280;10032;51.386;12.516;2023-04-29T00:54:15;99585.03;;;13.14;100.00
19748;BME280;10032;51.386;12.516;2023-04-29T00:56:44;99581.22;;;13.15;100.00
19748;BME280;10032;51.386;12.516;2023-04-29T00:59:10;99591.00;;;13.16;100.00
19748;BME280;10032;51.386;12.516;2023-04-29T01:01:37;99597.53;;;13.15;100.00
19748;BME280;10032;51.386;12.516;2023-04-29T01:04:04;99583.66;;;13.17;100.00
19748;BME280;10032;51.386;12.516;2023-04-29T01:06:44;99582.84;;;13.16;100.00
19748;BME280;10032;51.386;12.516;2023-04-29T01:09:28;99595.63;;;13.21;100.00
19748;BME280;10032;51.386;12.516;2023-04-29T01:12:20;99589.34;;;13.20;100.00
19748;BME280;10032;51.386;12.516;2023-04-29T01:17:39;99594.50;;;13.22;100.00
19748;BME280;10032;51.386;12.516;2023-04-29T01:20:06;99593.16;;;13.24;100.00
19748;BME280;10032;51.386;12.516;2023-04-29T01:22:33;99594.75;;;13.25;100.00
19748;BME280;10032;51.386;12.516;2023-04-29T01:24:58;99594.75;;;13.30;100.00
19748;BME280;10032;51.386;12.516;2023-04-29T01:27:38;99598.56;;;13.29;100.00
19748;BME280;10032;51.386;12.516;2023-04-29T01:30:31;99600.72;;;13.27;100.00
19748;BME280;10032;51.386;12.516;2023-04-29T01:38:52;99604.28;;;13.28;100.00
19748;BME280;10032;51.386;12.516;2023-04-29T01:43:57;99612.97;;;13.30;100.00
19748;BME280;10032;51.386;12.516;2023-04-29T01:46:24;99601.81;;;13.31;100.00
19748;BME280;10032;51.386;12.516;2023-04-29T01:48:53;99605.63;;;13.30;100.00
19748;BME280;10032;51.386;12.516;2023-04-29T01:51:19;99607.25;;;13.31;100.00
19748;BME280;10032;51.386;12.516;2023-04-29T01:53:45;99607.81;;;13.28;100.00
19748;BME280;10032;51.386;12.516;2023-04-29T01:56:10;99609.44;;;13.29;100.00
19748;BME280;10032;51.386;12.516;2023-04-29T01:58:36;99608.88;;;13.32;100.00
19748;BME280;10032;51.386;12.516;2023-04-29T02:01:01;99613.78;;;13.30;100.00
19748;BME280;10032;51.386;12.516;2023-04-29T02:03:26;99616.78;;;13.29;100.00
19748;BME280;10032;51.386;12.516;2023-04-29T02:05:52;99611.59;;;13.27;100.00
19748;BME280;10032;51.386;12.516;2023-04-29T02:08:17;99621.94;;;13.30;100.00
19748;BME280;10032;51.386;12.516;2023-04-29T02:10:56;99611.59;;;13.27;100.00
19748;BME280;10032;51.386;12.516;2023-04-29T02:13:21;99623.31;;;13.28;100.00
19748;BME280;10032;51.386;12.516;2023-04-29T02:15:47;99623.03;;;13.34;100.00
19748;BME280;10032;51.386;12.516;2023-04-29T02:18:13;99619.75;;;13.32;100.00
19748;BME280;10032;51.386;12.516;2023-04-29T02:20:38;99620.03;;;13.36;100.00
19748;BME280;10032;51.386;12.516;2023-04-29T02:23:04;99618.13;;;13.31;100.00
19748;BME280;10032;51.386;12.516;2023-04-29T02:25:29;99629.84;;;13.32;100.00
19748;BME280;10032;51.386;12.516;2023-04-29T02:27:55;99625.19;;;13.32;100.00
19748;BME280;10032;51.386;12.516;2023-04-29T02:30:20;99621.13;;;13.30;100.00
19748;BME280;10032;51.386;12.516;2023-04-29T02:32:46;99626.28;;;13.31;100.00
19748;BME280;10032;51.386;12.516;2023-04-29T02:35:11;99626.00;;;13.33;100.00
19748;BME280;10032;51.386;12.516;2023-04-29T02:37:37;99626.00;;;13.33;100.00
19748;BME280;10032;51.386;12.516;2023-04-29T02:40:03;99625.19;;;13.32;100.00
19748;BME280;10032;51.386;12.516;2023-04-29T02:42:29;99625.19;;;13.32;100.00
19748;BME280;10032;51.386;12.516;2023-04-29T02:44:55;99621.41;;;13.33;100.00
19748;BME280;10032;51.386;12.516;2023-04-29T02:47:20;99623.03;;;13.34;100.00
19748;BME280;10032;51.386;12.516;2023-04-29T02:49:45;99629.56;;;13.33;100.00
19748;BME280;10032;51.386;12.516;2023-04-29T02:52:11;99630.63;;;13.32;100.00
19748;BME280;10032;51.386;12.516;2023-04-29T02:54:37;99625.19;;;13.32;100.00
19748;BME280;10032;51.386;12.516;2023-04-29T02:57:02;99624.91;;;13.34;100.00
19748;BME280;10032;51.386;12.516;2023-04-29T02:59:28;99617.59;;;13.34;100.00
19748;BME280;10032;51.386;12.516;2023-04-29T03:01:53;99623.56;;;13.31;100.00
19748;BME280;10032;51.386;12.516;2023-04-29T03:04:19;99623.59;;;13.26;100.00
19748;BME280;10032;51.386;12.516;2023-04-29T03:06:44;99625.22;;;13.27;100.00
19748;BME280;10032;51.386;12.516;2023-04-29T03:09:10;99625.22;;;13.27;100.00
19748;BME280;10032;51.386;12.516;2023-04-29T03:11:36;99625.75;;;13.29;100.00
19748;BME280;10032;51.386;12.516;2023-04-29T03:14:02;99625.19;;;13.32;100.00
19748;BME280;10032;51.386;12.516;2023-04-29T03:16:28;99619.47;;;13.34;100.00
19748;BME280;10032;51.386;12.516;2023-04-29T03:18:53;99623.03;;;13.34;100.00
19748;BME280;10032;51.386;12.516;2023-04-29T03:21:19;99620.81;;;13.36;100.00
19748;BME280;10032;51.386;12.516;2023-04-29T03:23:44;99615.38;;;13.36;100.00
19748;BME280;10032;51.386;12.516;2023-04-29T03:26:09;99614.59;;;13.36;100.00
19748;BME280;10032;51.386;12.516;2023-04-29T03:28:35;99617.00;;;13.37;100.00
19748;BME280;10032;51.386;12.516;2023-04-29T03:31:01;99617.59;;;13.34;100.00
19748;BME280;10032;51.386;12.516;2023-04-29T03:33:27;99624.66;;;13.35;100.00
19748;BME280;10032;51.386;12.516;2023-04-29T03:35:52;99621.41;;;13.33;100.00
19748;BME280;10032;51.386;12.516;2023-04-29T03:38:18;99609.41;;;13.34;100.00
19748;BME280;10032;51.386;12.516;2023-04-29T03:40:44;99612.97;;;13.30;100.00
19748;BME280;10032;51.386;12.516;2023-04-29T03:43:09;99607.81;;;13.28;100.00
19748;BME280;10032;51.386;12.516;2023-04-29T03:45:36;99619.50;;;13.29;100.00
19748;BME280;10032;51.386;12.516;2023-04-29T03:48:02;99613.25;;;13.28;100.00
19748;BME280;10032;51.386;12.516;2023-04-29T03:50:28;99617.59;;;13.29;100.00
19748;BME280;10032;51.386;12.516;2023-04-29T03:52:53;99609.44;;;13.29;100.00
19748;BME280;10032;51.386;12.516;2023-04-29T03:55:19;99610.53;;;13.28;100.00
19748;BME280;10032;51.386;12.516;2023-04-29T03:57:44;99615.41;;;13.31;100.00
19748;BME280;10032;51.386;12.516;2023-04-29T04:00:10;99619.75;;;13.32;100.00
19748;BME280;10032;51.386;12.516;2023-04-29T04:02:36;99619.75;;;13.32;100.00
19748;BME280;10032;51.386;12.516;2023-04-29T04:05:01;99619.75;;;13.32;100.00
19748;BME280;10032;51.386;12.516;2023-04-29T04:07:27;99621.66;;;13.37;100.00
19748;BME280;10032;51.386;12.516;2023-04-29T04:09:52;99627.88;;;13.37;100.00
19748;BME280;10032;51.386;12.516;2023-04-29T04:12:18;99625.72;;;13.39;100.00
19748;BME280;10032;51.386;12.516;2023-04-29T04:14:43;99625.72;;;13.39;100.00
19748;BME280;10032;51.386;12.516;2023-04-29T04:17:08;99638.22;;;13.40;100.00
19748;BME280;10032;51.386;12.516;2023-04-29T04:19:34;99638.22;;;13.40;100.00
19748;BME280;10032;51.386;12.516;2023-04-29T04:22:02;99637.69;;;13.43;100.00
19748;BME280;10032;51.386;12.516;2023-04-29T04:24:27;99640.91;;;13.45;100.00
19748;BME280;10032;51.386;12.516;2023-04-29T04:26:53;99643.91;;;13.44;100.00
19748;BME280;10032;51.386;12.516;2023-04-29T04:29:18;99643.13;;;13.43;100.00
19748;BME280;10032;51.386;12.516;2023-04-29T04:31:43;99642.53;;;13.46;100.00
19748;BME280;10032;51.386;12.516;2023-04-29T04:34:09;99641.75;;;13.46;100.00
19748;BME280;10032;51.386;12.516;2023-04-29T04:36:34;99645.78;;;13.48;100.00
19748;BME280;10032;51.386;12.516;2023-04-29T04:39:00;99645.22;;;13.51;100.00
19748;BME280;10032;51.386;12.516;2023-04-29T04:41:25;99650.94;;;13.50;100.00
19748;BME280;10032;51.386;12.516;2023-04-29T04:43:51;99647.97;;;13.51;100.00
19748;BME280;10032;51.386;12.516;2023-04-29T04:46:16;99648.47;;;13.53;100.00
19748;BME280;10032;51.386;12.516;2023-04-29T04:48:42;99647.69;;;13.53;100.00
19748;BME280;10032;51.386;12.516;2023-04-29T04:51:08;99650.94;;;13.55;100.00
19748;BME280;10032;51.386;12.516;2023-04-29T04:53:34;99649.56;;;13.57;100.00
19748;BME280;10032;51.386;12.516;2023-04-29T04:56:03;99642.22;;;13.58;100.00
19748;BME280;10032;51.386;12.516;2023-04-29T04:58:29;99648.41;;;13.63;100.00
19748;BME280;10032;51.386;12.516;2023-04-29T05:00:59;99651.13;;;13.68;100.00
19748;BME280;10032;51.386;12.516;2023-04-29T05:03:25;99653.28;;;13.71;100.00
19748;BME280;10032;51.386;12.516;2023-04-29T05:05:57;99659.50;;;13.77;100.00
19748;BME280;10032;51.386;12.516;2023-04-29T05:08:24;99644.25;;;13.76;100.00
19748;BME280;10032;51.386;12.516;2023-04-29T05:10:50;99659.50;;;13.77;100.00
19748;BME280;10032;51.386;12.516;2023-04-29T05:13:16;99658.13;;;13.79;100.00
19748;BME280;10032;51.386;12.516;2023-04-29T05:15:42;99660.84;;;13.79;100.00
19748;BME280;10032;51.386;12.516;2023-04-29T05:18:07;99665.25;;;13.75;100.00
19748;BME280;10032;51.386;12.516;2023-04-29T05:20:33;99664.16;;;13.76;100.00
19748;BME280;10032;51.386;12.516;2023-04-29T05:22:58;99669.59;;;13.76;100.00
19748;BME280;10032;51.386;12.516;2023-04-29T05:25:24;99670.66;;;13.80;100.00
19748;BME280;10032;51.386;12.516;2023-04-29T05:27:49;99667.38;;;13.78;100.00
19748;BME280;10032;51.386;12.516;2023-04-29T05:30:15;99670.59;;;13.85;100.00
19748;BME280;10032;51.386;12.516;2023-04-29T05:32:41;99675.53;;;13.83;100.00
19748;BME280;10032;51.386;12.516;2023-04-29T05:35:07;99679.31;;;13.87;100.00
19748;BME280;10032;51.386;12.516;2023-04-29T05:37:32;99682.84;;;13.88;100.00
19748;BME280;10032;51.386;12.516;2023-04-29T05:39:58;99688.56;;;13.91;100.00
19748;BME280;10032;51.386;12.516;2023-04-29T05:42:23;99689.59;;;13.95;100.00
19748;BME280;10032;51.386;12.516;2023-04-29T05:44:49;99699.94;;;13.98;100.00
19748;BME280;10032;51.386;12.516;2023-04-29T05:47:15;99693.97;;;13.96;100.00
19748;BME280;10032;51.386;12.516;2023-04-29T05:49:40;99694.28;;;13.90;100.00
19748;BME280;10032;51.386;12.516;2023-04-29T05:52:06;99701.38;;;13.86;100.00
19748;BME280;10032;51.386;12.516;2023-04-29T05:54:34;99706.31;;;13.84;100.00
19748;BME280;10032;51.386;12.516;2023-04-29T05:57:01;99700.28;;;13.87;100.00
19748;BME280;10032;51.386;12.516;2023-04-29T05:59:30;99710.34;;;13.91;100.00
19748;BME280;10032;51.386;12.516;2023-04-29T06:01:56;99703.22;;;13.95;100.00
19748;BME280;10032;51.386;12.516;2023-04-29T06:04:22;99716.56;;;13.97;100.00
19748;BME280;10032;51.386;12.516;2023-04-29T06:06:49;99723.91;;;14.01;100.00
19748;BME280;10032;51.386;12.516;2023-04-29T06:09:15;99722.22;;;14.05;100.00
19748;BME280;10032;51.386;12.516;2023-04-29T06:11:40;99723.56;;;14.08;100.00
19748;BME280;10032;51.386;12.516;2023-04-29T06:14:06;99727.13;;;14.08;100.00
19748;BME280;10032;51.386;12.516;2023-04-29T06:16:32;99717.84;;;14.09;100.00
19748;BME280;10032;51.386;12.516;2023-04-29T06:18:57;99723.22;;;14.24;100.00
19748;BME280;10032;51.386;12.516;2023-04-29T06:21:23;99722.63;;;14.27;100.00
19748;BME280;10032;51.386;12.516;2023-04-29T06:23:49;99723.97;;;14.30;100.00
19748;BME280;10032;51.386;12.516;2023-04-29T06:26:14;99729.34;;;14.40;100.00
19748;BME280;10032;51.386;12.516;2023-04-29T06:28:40;99733.94;;;14.49;100.00
19748;BME280;10032;51.386;12.516;2023-04-29T06:31:05;99737.41;;;14.55;100.00
19748;BME280;10032;51.386;12.516;2023-04-29T06:33:31;99739.59;;;14.58;100.00
19748;BME280;10032;51.386;12.516;2023-04-29T06:35:58;99739.31;;;14.59;100.00
19748;BME280;10032;51.386;12.516;2023-04-29T06:38:23;99742.56;;;14.61;100.00
19748;BME280;10032;51.386;12.516;2023-04-29T06:40:49;99753.47;;;14.61;100.00
19748;BME280;10032;51.386;12.516;2023-04-29T06:43:14;99753.47;;;14.61;100.00
19748;BME280;10032;51.386;12.516;2023-04-29T06:45:40;99756.75;;;14.58;100.00
19748;BME280;10032;51.386;12.516;2023-04-29T06:48:05;99760.22;;;14.69;100.00
19748;BME280;10032;51.386;12.516;2023-04-29T06:50:30;99762.41;;;14.67;100.00
19748;BME280;10032;51.386;12.516;2023-04-29T06:52:56;99764.28;;;14.71;100.00
19748;BME280;10032;51.386;12.516;2023-04-29T06:55:21;99768.06;;;14.75;100.00
19748;BME280;10032;51.386;12.516;2023-04-29T06:57:46;99770.53;;;14.72;100.00
19748;BME280;10032;51.386;12.516;2023-04-29T07:00:12;99761.63;;;14.61;100.00
19748;BME280;10032;51.386;12.516;2023-04-29T07:02:38;99765.75;;;14.59;100.00
19748;BME280;10032;51.386;12.516;2023-04-29T07:05:04;99773.09;;;14.58;100.00
19748;BME280;10032;51.386;12.516;2023-04-29T07:07:30;99775.56;;;14.60;100.00
19748;BME280;10032;51.386;12.516;2023-04-29T07:09:55;99767.88;;;14.62;100.00
19748;BME280;10032;51.386;12.516;2023-04-29T07:12:21;99773.91;;;14.64;100.00
19748;BME280;10032;51.386;12.516;2023-04-29T07:14:46;99775.78;;;14.63;100.00
19748;BME280;10032;51.386;12.516;2023-04-29T07:17:12;99780.13;;;14.64;100.00
19748;BME280;10032;51.386;12.516;2023-04-29T07:19:37;99786.19;;;14.61;100.00
19748;BME280;10032;51.386;12.516;2023-04-29T07:22:02;99790.53;;;14.62;100.00
19748;BME280;10032;51.386;12.516;2023-04-29T07:24:28;99789.69;;;14.62;100.00
19748;BME280;10032;51.386;12.516;2023-04-29T07:26:53;99795.94;;;14.67;100.00
19748;BME280;10032;51.386;12.516;2023-04-29T07:29:19;99792.13;;;14.68;100.00
19748;BME280;10032;51.386;12.516;2023-04-29T07:31:44;99794.56;;;14.70;100.00
19748;BME280;10032;51.386;12.516;2023-04-29T07:34:10;99808.47;;;14.68;100.00
19748;BME280;10032;51.386;12.516;2023-04-29T07:36:35;99805.50;;;14.65;100.00
19748;BME280;10032;51.386;12.516;2023-04-29T07:39:01;99813.75;;;14.55;100.00
19748;BME280;10032;51.386;12.516;2023-04-29T07:41:26;99803.72;;;14.50;100.00
19748;BME280;10032;51.386;12.516;2023-04-29T07:43:52;99815.19;;;14.42;100.00
19748;BME280;10032;51.386;12.516;2023-04-29T07:46:18;99824.44;;;14.46;100.00
19748;BME280;10032;51.386;12.516;2023-04-29T07:48:43;99821.66;;;14.56;100.00
19748;BME280;10032;51.386;12.516;2023-04-29T07:51:14;99829.31;;;14.54;100.00
19748;BME280;10032;51.386;12.516;2023-04-29T07:53:40;99823.88;;;14.54;100.00
19748;BME280;10032;51.386;12.516;2023-04-29T07:56:06;99828.19;;;14.60;100.00
19748;BME280;10032;51.386;12.516;2023-04-29T07:58:32;99837.13;;;14.66;100.00
19748;BME280;10032;51.386;12.516;2023-04-29T08:01:07;99831.44;;;14.62;100.00
19748;BME280;10032;51.386;12.516;2023-04-29T08:03:33;99839.16;;;14.50;100.00
19748;BME280;10032;51.386;12.516;2023-04-29T08:06:05;99832.63;;;14.46;100.00
19748;BME280;10032;51.386;12.516;2023-04-29T08:08:31;99840.88;;;14.36;100.00
19748;BME280;10032;51.386;12.516;2023-04-29T08:10:57;99846.59;;;14.35;100.00
19748;BME280;10032;51.386;12.516;2023-04-29T08:13:23;99849.63;;;14.33;100.00
19748;BME280;10032;51.386;12.516;2023-04-29T08:15:49;99862.16;;;14.34;100.00
19748;BME280;10032;51.386;12.516;2023-04-29T08:18:15;99862.16;;;14.34;100.00
19748;BME280;10032;51.386;12.516;2023-04-29T08:20:40;99867.91;;;14.28;100.00
19748;BME280;10032;51.386;12.516;2023-04-29T08:23:07;99874.19;;;14.18;100.00
19748;BME280;10032;51.386;12.516;2023-04-29T08:25:32;99880.75;;;14.12;100.00
19748;BME280;10032;51.386;12.516;2023-04-29T08:27:58;99884.31;;;14.08;100.00
19748;BME280;10032;51.386;12.516;2023-04-29T08:30:23;99896.56;;;14.05;100.00
19748;BME280;10032;51.386;12.516;2023-04-29T08:32:50;99895.53;;;14.01;100.00
19748;BME280;10032;51.386;12.516;2023-04-29T08:35:15;99890.59;;;14.03;100.00
19748;BME280;10032;51.386;12.516;2023-04-29T08:37:41;99899.50;;;14.19;100.00
19748;BME280;10032;51.386;12.516;2023-04-29T08:40:07;99904.13;;;14.38;100.00
19748;BME280;10032;51.386;12.516;2023-04-29T08:42:35;99902.94;;;14.54;100.00
19748;BME280;10032;51.386;12.516;2023-04-29T08:45:02;99904.00;;;14.53;100.00
19748;BME280;10032;51.386;12.516;2023-04-29T08:47:32;99901.84;;;14.55;100.00
19748;BME280;10032;51.386;12.516;2023-04-29T08:50:04;99907.50;;;14.64;100.00
19748;BME280;10032;51.386;12.516;2023-04-29T08:52:31;99910.91;;;14.84;100.00
19748;BME280;10032;51.386;12.516;2023-04-29T08:54:59;99910.34;;;14.87;100.00
19748;BME280;10032;51.386;12.516;2023-04-29T08:57:28;99920.22;;;14.78;100.00
19748;BME280;10032;51.386;12.516;2023-04-29T08:59:55;99920.75;;;14.80;100.00
19748;BME280;10032;51.386;12.516;2023-04-29T09:02:21;99925.91;;;14.87;100.00
19748;BME280;10032;51.386;12.516;2023-04-29T09:04:57;99926.59;;;15.07;100.00
19748;BME280;10032;51.386;12.516;2023-04-29T09:07:26;99937.41;;;15.17;100.00
19748;BME280;10032;51.386;12.516;2023-04-29T09:09:52;99937.22;;;15.04;100.00
19748;BME280;10032;51.386;12.516;2023-04-29T09:12:19;99931.34;;;14.87;100.00
19748;BME280;10032;51.386;12.516;2023-04-29T09:14:44;99940.44;;;14.72;100.00
19748;BME280;10032;51.386;12.516;2023-04-29T09:17:10;99943.75;;;14.64;100.00
19748;BME280;10032;51.386;12.516;2023-04-29T09:19:35;99939.94;;;14.65;100.00
19748;BME280;10032;51.386;12.516;2023-04-29T09:22:02;99936.16;;;14.61;100.00
19748;BME280;10032;51.386;12.516;2023-04-29T09:24:29;99944.94;;;14.48;100.00
19748;BME280;10032;51.386;12.516;2023-04-29T09:26:57;99953.09;;;14.48;100.00
19748;BME280;10032;51.386;12.516;2023-04-29T09:29:23;99954.78;;;14.44;100.00
19748;BME280;10032;51.386;12.516;2023-04-29T09:31:49;99970.34;;;14.34;100.00
19748;BME280;10032;51.386;12.516;2023-04-29T09:34:29;99959.69;;;14.37;100.00
19748;BME280;10032;51.386;12.516;2023-04-29T09:36:55;99971.31;;;14.63;100.00
19748;BME280;10032;51.386;12.516;2023-04-29T09:39:24;99968.81;;;14.76;100.00
19748;BME280;10032;51.386;12.516;2023-04-29T09:44:19;99976.91;;;15.25;100.00
19748;BME280;10032;51.386;12.516;2023-04-29T09:49:26;99990.31;;;15.21;100.00
19748;BME280;10032;51.386;12.516;2023-04-29T09:51:54;99999.78;;;14.90;100.00
19748;BME280;10032;51.386;12.516;2023-04-29T09:54:24;100005.59;;;14.79;100.00
19748;BME280;10032;51.386;12.516;2023-04-29T09:56:51;100006.44;;;14.69;100.00
19748;BME280;10032;51.386;12.516;2023-04-29T09:59:20;100011.69;;;14.56;100.00
19748;BME280;10032;51.386;12.516;2023-04-29T10:01:51;100015.25;;;14.51;100.00
19748;BME280;10032;51.386;12.516;2023-04-29T10:04:19;100019.06;;;14.60;100.00
19748;BME280;10032;51.386;12.516;2023-04-29T10:06:47;100017.47;;;14.44;100.00
19748;BME280;10032;51.386;12.516;2023-04-29T10:09:14;100031.13;;;14.34;100.00
19748;BME280;10032;51.386;12.516;2023-04-29T10:11:41;100023.50;;;14.26;100.00
19748;BME280;10032;51.386;12.516;2023-04-29T10:14:12;100021.59;;;14.32;100.00
19748;BME280;10032;51.386;12.516;2023-04-29T10:19:11;100039.09;;;13.86;100.00
19748;BME280;10032;51.386;12.516;2023-04-29T10:21:39;100041.00;;;13.80;100.00
19748;BME280;10032;51.386;12.516;2023-04-29T10:24:06;100044.25;;;13.87;100.00
19748;BME280;10032;51.386;12.516;2023-04-29T10:26:33;100038.25;;;14.00;100.00
19748;BME280;10032;51.386;12.516;2023-04-29T10:29:01;100037.69;;;14.08;100.00
19748;BME280;10032;51.386;12.516;2023-04-29T10:31:28;100044.78;;;14.29;100.00
19748;BME280;10032;51.386;12.516;2023-04-29T10:33:55;100043.69;;;14.25;100.00
19748;BME280;10032;51.386;12.516;2023-04-29T10:36:22;100048.59;;;14.18;100.00
19748;BME280;10032;51.386;12.516;2023-04-29T10:38:53;100054.31;;;13.92;100.00
19748;BME280;10032;51.386;12.516;2023-04-29T10:41:30;100064.94;;;13.63;100.00
19748;BME280;10032;51.386;12.516;2023-04-29T10:43:58;100072.81;;;13.50;100.00
19748;BME280;10032;51.386;12.516;2023-04-29T10:46:25;100069.28;;;13.44;100.00
19748;BME280;10032;51.386;12.516;2023-04-29T10:49:04;100064.09;;;13.38;100.00
19748;BME280;10032;51.386;12.516;2023-04-29T10:51:39;100063.84;;;13.34;100.00
19748;BME280;10032;51.386;12.516;2023-04-29T10:54:16;100071.75;;;13.36;100.00
19748;BME280;10032;51.386;12.516;2023-04-29T10:56:49;100070.91;;;13.35;100.00
19748;BME280;10032;51.386;12.516;2023-04-29T11:02:06;100074.13;;;13.12;100.00
19748;BME280;10032;51.386;12.516;2023-04-29T11:04:32;100081.47;;;13.12;100.00
19748;BME280;10032;51.386;12.516;2023-04-29T11:06:57;100079.78;;;13.01;100.00
19748;BME280;10032;51.386;12.516;2023-04-29T11:09:30;100101.28;;;12.97;100.00
19748;BME280;10032;51.386;12.516;2023-04-29T11:12:02;100092.88;;;13.04;100.00
19748;BME280;10032;51.386;12.516;2023-04-29T11:14:30;100089.34;;;13.13;100.00
19748;BME280;10032;51.386;12.516;2023-04-29T11:17:01;100095.91;;;13.12;100.00
19748;BME280;10032;51.386;12.516;2023-04-29T11:19:44;100094.81;;;13.18;100.00
19748;BME280;10032;51.386;12.516;2023-04-29T11:24:58;100107.84;;;13.16;100.00
19748;BME280;10032;51.386;12.516;2023-04-29T11:30:00;100113.25;;;13.01;100.00
19748;BME280;10032;51.386;12.516;2023-04-29T11:32:29;100126.31;;;13.04;100.00
19748;BME280;10032;51.386;12.516;2023-04-29T11:35:05;100126.03;;;13.01;100.00
19748;BME280;10032;51.386;12.516;2023-04-29T11:37:31;100121.88;;;12.93;100.00
19748;BME280;10032;51.386;12.516;2023-04-29T11:39:59;100138.72;;;12.85;100.00
19748;BME280;10032;51.386;12.516;2023-04-29T11:42:25;100136.00;;;12.90;100.00
19748;BME280;10032;51.386;12.516;2023-04-29T11:44:52;100131.38;;;12.91;100.00
19748;BME280;10032;51.386;12.516;2023-04-29T11:47:18;100136.00;;;12.85;100.00
19748;BME280;10032;51.386;12.516;2023-04-29T11:49:45;100141.72;;;12.89;100.00
19748;BME280;10032;51.386;12.516;2023-04-29T11:52:11;100140.66;;;12.95;100.00
19748;BME280;10032;51.386;12.516;2023-04-29T11:54:37;100149.16;;;13.03;100.00
19748;BME280;10032;51.386;12.516;2023-04-29T11:57:03;100139.91;;;13.04;100.00
19748;BME280;10032;51.386;12.516;2023-04-29T11:59:30;100156.78;;;13.01;100.00
19748;BME280;10032;51.386;12.516;2023-04-29T12:01:57;100156.53;;;13.13;100.00
19748;BME280;10032;51.386;12.516;2023-04-29T12:04:23;100157.91;;;13.15;100.00
19748;BME280;10032;51.386;12.516;2023-04-29T12:06:52;100159.59;;;13.26;100.00
19748;BME280;10032;51.386;12.516;2023-04-29T12:09:18;100163.66;;;13.29;100.00
19748;BME280;10032;51.386;12.516;2023-04-29T12:11:44;100162.59;;;13.25;100.00
19748;BME280;10032;51.386;12.516;2023-04-29T12:14:12;100164.22;;;13.26;100.00
19748;BME280;10032;51.386;12.516;2023-04-29T12:16:38;100162.31;;;13.31;100.00
19748;BME280;10032;51.386;12.516;2023-04-29T12:19:04;100166.72;;;13.47;100.00
19748;BME280;10032;51.386;12.516;2023-04-29T12:21:30;100167.88;;;13.61;100.00
19748;BME280;10032;51.386;12.516;2023-04-29T12:23:58;100165.44;;;13.70;100.00
19748;BME280;10032;51.386;12.516;2023-04-29T12:26:26;100164.63;;;13.79;100.00
19748;BME280;10032;51.386;12.516;2023-04-29T12:28:57;100169.53;;;13.82;100.00
19748;BME280;10032;51.386;12.516;2023-04-29T12:31:23;100160.53;;;13.87;100.00
19748;BME280;10032;51.386;12.516;2023-04-29T12:33:56;100174.44;;;13.85;100.00
19748;BME280;10032;51.386;12.516;2023-04-29T12:36:22;100169.53;;;13.82;100.00
19748;BME280;10032;51.386;12.516;2023-04-29T12:38:47;100170.91;;;13.85;100.00
19748;BME280;10032;51.386;12.516;2023-04-29T12:41:13;100170.66;;;13.91;100.00
19748;BME280;10032;51.386;12.516;2023-04-29T12:43:41;100174.72;;;14.09;100.00
19748;BME280;10032;51.386;12.516;2023-04-29T12:46:08;100175.28;;;14.06;100.00
19748;BME280;10032;51.386;12.516;2023-04-29T12:48:36;100190.28;;;14.08;100.00
19748;BME280;10032;51.386;12.516;2023-04-29T12:51:10;100181.53;;;14.06;100.00
19748;BME280;10032;51.386;12.516;2023-04-29T12:53:37;100185.41;;;14.20;100.00
19748;BME280;10032;51.386;12.516;2023-04-29T12:56:03;100186.75;;;14.23;100.00
19748;BME280;10032;51.386;12.516;2023-04-29T12:58:29;100183.78;;;14.39;100.00
19748;BME280;10032;51.386;12.516;2023-04-29T13:00:55;100176.13;;;14.56;100.00
19748;BME280;10032;51.386;12.516;2023-04-29T13:03:21;100175.28;;;14.71;100.00